sensor_id;sensor_type;location;lat;lon;timestamp;P1;durP1;ratioP1;P2;durP2;ratioP2
70806;SDS011;58882;52.170;5.386;2024-01-30T00:00:03;14.30;;;5.60;;
70806;SDS011;58882;52.170;5.386;2024-01-30T00:02:31;9.95;;;5.72;;
70806;SDS011;58882;52.170;5.386;2024-01-30T00:04:58;11.93;;;6.10;;
70806;SDS011;58882;52.170;5.386;2024-01-30T00:07:25;13.15;;;5.93;;
70806;SDS011;58882;52.170;5.386;2024-01-30T00:09:52;12.60;;;6.05;;
70806;SDS011;58882;52.170;5.386;2024-01-30T00:12:19;12.18;;;5.82;;
70806;SDS011;58882;52.170;5.386;2024-01-30T00:14:46;11.85;;;5.60;;
70806;SDS011;58882;52.170;5.386;2024-01-30T00:17:16;10.18;;;5.53;;
70806;SDS011;58882;52.170;5.386;2024-01-30T00:19:43;11.07;;;6.00;;
70806;SDS011;58882;52.170;5.386;2024-01-30T00:22:10;12.30;;;5.80;;
70806;SDS011;58882;52.170;5.386;2024-01-30T00:24:37;11.60;;;5.95;;
70806;SDS011;58882;52.170;5.386;2024-01-30T00:27:04;10.68;;;5.53;;
70806;SDS011;58882;52.170;5.386;2024-01-30T00:29:31;14.20;;;5.80;;
70806;SDS011;58882;52.170;5.386;2024-01-30T00:32:00;13.05;;;5.75;;
70806;SDS011;58882;52.170;5.386;2024-01-30T00:34:27;11.77;;;5.93;;
70806;SDS011;58882;52.170;5.386;2024-01-30T00:36:54;14.30;;;5.65;;
70806;SDS011;58882;52.170;5.386;2024-01-30T00:39:21;10.68;;;6.13;;
70806;SDS011;58882;52.170;5.386;2024-01-30T00:41:48;11.48;;;5.85;;
70806;SDS011;58882;52.170;5.386;2024-01-30T00:44:15;10.95;;;5.68;;
70806;SDS011;58882;52.170;5.386;2024-01-30T00:46:41;11.65;;;6.00;;
70806;SDS011;58882;52.170;5.386;2024-01-30T00:49:10;11.23;;;5.82;;
70806;SDS011;58882;52.170;5.386;2024-01-30T00:54:04;10.90;;;5.30;;
70806;SDS011;58882;52.170;5.386;2024-01-30T00:56:32;10.55;;;5.57;;
70806;SDS011;58882;52.170;5.386;2024-01-30T00:58:59;12.07;;;5.55;;
70806;SDS011;58882;52.170;5.386;2024-01-30T01:01:26;13.40;;;6.00;;
70806;SDS011;58882;52.170;5.386;2024-01-30T01:03:53;11.73;;;5.20;;
70806;SDS011;58882;52.170;5.386;2024-01-30T01:06:20;10.85;;;5.80;;
70806;SDS011;58882;52.170;5.386;2024-01-30T01:08:47;15.55;;;6.30;;
70806;SDS011;58882;52.170;5.386;2024-01-30T01:11:14;12.23;;;6.10;;
70806;SDS011;58882;52.170;5.386;2024-01-30T01:13:41;10.45;;;5.90;;
70806;SDS011;58882;52.170;5.386;2024-01-30T01:16:08;9.65;;;5.00;;
70806;SDS011;58882;52.170;5.386;2024-01-30T01:18:35;11.38;;;5.95;;
70806;SDS011;58882;52.170;5.386;2024-01-30T01:21:02;11.45;;;6.28;;
70806;SDS011;58882;52.170;5.386;2024-01-30T01:23:29;11.32;;;5.57;;
70806;SDS011;58882;52.170;5.386;2024-01-30T01:25:56;12.18;;;5.68;;
70806;SDS011;58882;52.170;5.386;2024-01-30T01:28:26;13.82;;;5.53;;
70806;SDS011;58882;52.170;5.386;2024-01-30T01:30:53;13.57;;;6.05;;
70806;SDS011;58882;52.170;5.386;2024-01-30T01:33:25;10.93;;;5.97;;
70806;SDS011;58882;52.170;5.386;2024-01-30T01:35:52;9.73;;;5.57;;
70806;SDS011;58882;52.170;5.386;2024-01-30T01:38:19;10.00;;;5.63;;
70806;SDS011;58882;52.170;5.386;2024-01-30T01:40:46;12.10;;;5.85;;
70806;SDS011;58882;52.170;5.386;2024-01-30T01:43:13;10.35;;;5.75;;
70806;SDS011;58882;52.170;5.386;2024-01-30T01:45:40;11.13;;;5.53;;
70806;SDS011;58882;52.170;5.386;2024-01-30T01:48:07;10.82;;;5.55;;
70806;SDS011;58882;52.170;5.386;2024-01-30T01:50:35;14.27;;;5.38;;
70806;SDS011;58882;52.170;5.386;2024-01-30T01:53:03;10.75;;;5.57;;
70806;SDS011;58882;52.170;5.386;2024-01-30T01:55:34;11.18;;;5.38;;
70806;SDS011;58882;52.170;5.386;2024-01-30T01:58:02;12.90;;;5.70;;
70806;SDS011;58882;52.170;5.386;2024-01-30T02:00:29;10.05;;;5.22;;
70806;SDS011;58882;52.170;5.386;2024-01-30T02:02:57;11.18;;;5.38;;
70806;SDS011;58882;52.170;5.386;2024-01-30T02:05:25;10.15;;;5.30;;
70806;SDS011;58882;52.170;5.386;2024-01-30T02:07:52;13.05;;;5.45;;
70806;SDS011;58882;52.170;5.386;2024-01-30T02:10:20;11.00;;;5.75;;
70806;SDS011;58882;52.170;5.386;2024-01-30T02:12:48;11.63;;;5.50;;
70806;SDS011;58882;52.170;5.386;2024-01-30T02:15:15;9.85;;;5.00;;
70806;SDS011;58882;52.170;5.386;2024-01-30T02:17:42;9.27;;;4.90;;
70806;SDS011;58882;52.170;5.386;2024-01-30T02:20:09;12.23;;;5.35;;
70806;SDS011;58882;52.170;5.386;2024-01-30T02:22:36;12.13;;;5.07;;
70806;SDS011;58882;52.170;5.386;2024-01-30T02:25:04;24.15;;;5.53;;
70806;SDS011;58882;52.170;5.386;2024-01-30T02:27:31;9.32;;;5.18;;
70806;SDS011;58882;52.170;5.386;2024-01-30T02:29:58;11.18;;;5.10;;
70806;SDS011;58882;52.170;5.386;2024-01-30T02:32:25;10.60;;;5.63;;
70806;SDS011;58882;52.170;5.386;2024-01-30T02:34:52;9.18;;;5.10;;
70806;SDS011;58882;52.170;5.386;2024-01-30T02:37:19;9.85;;;4.65;;
70806;SDS011;58882;52.170;5.386;2024-01-30T02:39:46;13.38;;;5.40;;
70806;SDS011;58882;52.170;5.386;2024-01-30T02:42:13;10.35;;;5.22;;
70806;SDS011;58882;52.170;5.386;2024-01-30T02:44:40;11.57;;;5.28;;
70806;SDS011;58882;52.170;5.386;2024-01-30T02:47:07;8.27;;;4.80;;
70806;SDS011;58882;52.170;5.386;2024-01-30T02:49:33;9.88;;;4.68;;
70806;SDS011;58882;52.170;5.386;2024-01-30T02:52:00;10.13;;;4.85;;
70806;SDS011;58882;52.170;5.386;2024-01-30T02:54:27;8.73;;;5.00;;
70806;SDS011;58882;52.170;5.386;2024-01-30T02:56:54;10.13;;;5.07;;
70806;SDS011;58882;52.170;5.386;2024-01-30T02:59:21;9.70;;;5.10;;
70806;SDS011;58882;52.170;5.386;2024-01-30T03:01:48;10.57;;;5.13;;
70806;SDS011;58882;52.170;5.386;2024-01-30T03:04:15;9.68;;;5.05;;
70806;SDS011;58882;52.170;5.386;2024-01-30T03:06:45;11.98;;;5.82;;
70806;SDS011;58882;52.170;5.386;2024-01-30T03:09:18;10.27;;;5.30;;
70806;SDS011;58882;52.170;5.386;2024-01-30T03:11:45;10.23;;;5.65;;
70806;SDS011;58882;52.170;5.386;2024-01-30T03:14:12;11.25;;;5.65;;
70806;SDS011;58882;52.170;5.386;2024-01-30T03:16:39;11.85;;;5.15;;
70806;SDS011;58882;52.170;5.386;2024-01-30T03:19:06;11.15;;;5.88;;
70806;SDS011;58882;52.170;5.386;2024-01-30T03:21:36;11.70;;;6.00;;
70806;SDS011;58882;52.170;5.386;2024-01-30T03:24:03;10.80;;;6.22;;
70806;SDS011;58882;52.170;5.386;2024-01-30T03:26:30;11.20;;;5.45;;
70806;SDS011;58882;52.170;5.386;2024-01-30T03:28:57;10.00;;;5.93;;
70806;SDS011;58882;52.170;5.386;2024-01-30T03:31:24;11.63;;;6.10;;
70806;SDS011;58882;52.170;5.386;2024-01-30T03:33:51;12.00;;;5.50;;
70806;SDS011;58882;52.170;5.386;2024-01-30T03:36:18;10.70;;;6.07;;
70806;SDS011;58882;52.170;5.386;2024-01-30T03:38:45;11.05;;;5.72;;
70806;SDS011;58882;52.170;5.386;2024-01-30T03:41:12;11.63;;;5.85;;
70806;SDS011;58882;52.170;5.386;2024-01-30T03:43:38;11.10;;;5.53;;
70806;SDS011;58882;52.170;5.386;2024-01-30T03:46:05;15.20;;;6.00;;
70806;SDS011;58882;52.170;5.386;2024-01-30T03:48:32;11.57;;;5.88;;
70806;SDS011;58882;52.170;5.386;2024-01-30T03:50:59;13.68;;;6.10;;
70806;SDS011;58882;52.170;5.386;2024-01-30T03:53:26;11.23;;;5.75;;
70806;SDS011;58882;52.170;5.386;2024-01-30T03:55:53;11.77;;;5.60;;
70806;SDS011;58882;52.170;5.386;2024-01-30T03:58:20;11.38;;;5.75;;
70806;SDS011;58882;52.170;5.386;2024-01-30T04:00:47;10.32;;;5.53;;
70806;SDS011;58882;52.170;5.386;2024-01-30T04:03:14;10.60;;;5.07;;
70806;SDS011;58882;52.170;5.386;2024-01-30T04:05:44;11.65;;;5.47;;
70806;SDS011;58882;52.170;5.386;2024-01-30T04:08:11;10.02;;;5.15;;
70806;SDS011;58882;52.170;5.386;2024-01-30T04:10:38;10.63;;;5.85;;
70806;SDS011;58882;52.170;5.386;2024-01-30T04:13:05;10.25;;;5.57;;
70806;SDS011;58882;52.170;5.386;2024-01-30T04:15:37;11.20;;;5.10;;
70806;SDS011;58882;52.170;5.386;2024-01-30T04:18:04;9.80;;;5.20;;
70806;SDS011;58882;52.170;5.386;2024-01-30T04:20:31;12.93;;;4.95;;
70806;SDS011;58882;52.170;5.386;2024-01-30T04:22:58;12.68;;;4.82;;
70806;SDS011;58882;52.170;5.386;2024-01-30T04:25:25;20.00;;;5.20;;
70806;SDS011;58882;52.170;5.386;2024-01-30T04:27:52;17.77;;;5.10;;
70806;SDS011;58882;52.170;5.386;2024-01-30T04:30:19;19.05;;;5.40;;
70806;SDS011;58882;52.170;5.386;2024-01-30T04:32:46;12.07;;;5.00;;
70806;SDS011;58882;52.170;5.386;2024-01-30T04:35:13;10.88;;;5.20;;
70806;SDS011;58882;52.170;5.386;2024-01-30T04:37:40;10.55;;;5.13;;
70806;SDS011;58882;52.170;5.386;2024-01-30T04:40:07;10.60;;;4.78;;
70806;SDS011;58882;52.170;5.386;2024-01-30T04:42:35;12.32;;;5.03;;
70806;SDS011;58882;52.170;5.386;2024-01-30T04:45:02;11.63;;;5.05;;
70806;SDS011;58882;52.170;5.386;2024-01-30T04:47:29;10.38;;;4.78;;
70806;SDS011;58882;52.170;5.386;2024-01-30T04:49:56;10.23;;;4.95;;
70806;SDS011;58882;52.170;5.386;2024-01-30T04:52:23;10.90;;;5.00;;
70806;SDS011;58882;52.170;5.386;2024-01-30T04:54:50;9.90;;;4.75;;
70806;SDS011;58882;52.170;5.386;2024-01-30T04:57:17;13.07;;;4.82;;
70806;SDS011;58882;52.170;5.386;2024-01-30T04:59:44;10.40;;;4.85;;
70806;SDS011;58882;52.170;5.386;2024-01-30T05:02:10;10.23;;;5.25;;
70806;SDS011;58882;52.170;5.386;2024-01-30T05:04:38;11.48;;;4.53;;
70806;SDS011;58882;52.170;5.386;2024-01-30T05:07:05;10.85;;;5.13;;
70806;SDS011;58882;52.170;5.386;2024-01-30T05:09:32;10.52;;;5.22;;
70806;SDS011;58882;52.170;5.386;2024-01-30T05:11:59;10.63;;;4.55;;
70806;SDS011;58882;52.170;5.386;2024-01-30T05:14:26;12.23;;;4.43;;
70806;SDS011;58882;52.170;5.386;2024-01-30T05:16:52;8.25;;;4.35;;
70806;SDS011;58882;52.170;5.386;2024-01-30T05:19:19;15.77;;;4.82;;
70806;SDS011;58882;52.170;5.386;2024-01-30T05:21:47;11.13;;;4.88;;
70806;SDS011;58882;52.170;5.386;2024-01-30T05:24:14;11.65;;;5.07;;
70806;SDS011;58882;52.170;5.386;2024-01-30T05:26:43;11.20;;;4.90;;
70806;SDS011;58882;52.170;5.386;2024-01-30T05:29:10;10.48;;;5.00;;
70806;SDS011;58882;52.170;5.386;2024-01-30T05:31:37;10.80;;;4.47;;
70806;SDS011;58882;52.170;5.386;2024-01-30T05:34:04;9.50;;;4.78;;
70806;SDS011;58882;52.170;5.386;2024-01-30T05:36:31;8.90;;;4.35;;
70806;SDS011;58882;52.170;5.386;2024-01-30T05:38:57;9.27;;;5.00;;
70806;SDS011;58882;52.170;5.386;2024-01-30T05:41:24;11.38;;;4.95;;
70806;SDS011;58882;52.170;5.386;2024-01-30T05:43:51;12.95;;;5.03;;
70806;SDS011;58882;52.170;5.386;2024-01-30T05:46:18;9.65;;;4.15;;
70806;SDS011;58882;52.170;5.386;2024-01-30T05:48:48;13.68;;;4.60;;
70806;SDS011;58882;52.170;5.386;2024-01-30T05:51:15;13.50;;;4.70;;
70806;SDS011;58882;52.170;5.386;2024-01-30T05:53:42;11.73;;;4.57;;
70806;SDS011;58882;52.170;5.386;2024-01-30T05:56:09;10.02;;;4.57;;
70806;SDS011;58882;52.170;5.386;2024-01-30T05:58:35;8.00;;;4.10;;
70806;SDS011;58882;52.170;5.386;2024-01-30T06:01:06;9.52;;;4.40;;
70806;SDS011;58882;52.170;5.386;2024-01-30T06:03:35;14.38;;;5.20;;
70806;SDS011;58882;52.170;5.386;2024-01-30T06:06:02;10.30;;;4.50;;
70806;SDS011;58882;52.170;5.386;2024-01-30T06:08:29;11.07;;;4.60;;
70806;SDS011;58882;52.170;5.386;2024-01-30T06:10:55;8.70;;;4.10;;
70806;SDS011;58882;52.170;5.386;2024-01-30T06:13:22;13.02;;;4.53;;
70806;SDS011;58882;52.170;5.386;2024-01-30T06:15:49;9.05;;;4.22;;
70806;SDS011;58882;52.170;5.386;2024-01-30T06:18:16;10.45;;;4.20;;
70806;SDS011;58882;52.170;5.386;2024-01-30T06:20:43;9.80;;;4.10;;
70806;SDS011;58882;52.170;5.386;2024-01-30T06:23:10;9.50;;;4.35;;
70806;SDS011;58882;52.170;5.386;2024-01-30T06:25:39;8.55;;;4.10;;
70806;SDS011;58882;52.170;5.386;2024-01-30T06:28:06;7.78;;;4.10;;
70806;SDS011;58882;52.170;5.386;2024-01-30T06:30:33;9.57;;;4.30;;
70806;SDS011;58882;52.170;5.386;2024-01-30T06:33:00;8.25;;;4.00;;
70806;SDS011;58882;52.170;5.386;2024-01-30T06:35:27;10.75;;;4.22;;
70806;SDS011;58882;52.170;5.386;2024-01-30T06:37:55;10.23;;;4.28;;
70806;SDS011;58882;52.170;5.386;2024-01-30T06:40:22;9.05;;;4.20;;
70806;SDS011;58882;52.170;5.386;2024-01-30T06:42:49;9.32;;;4.50;;
70806;SDS011;58882;52.170;5.386;2024-01-30T06:45:16;10.02;;;4.00;;
70806;SDS011;58882;52.170;5.386;2024-01-30T06:47:43;10.90;;;4.53;;
70806;SDS011;58882;52.170;5.386;2024-01-30T06:50:10;8.25;;;4.15;;
70806;SDS011;58882;52.170;5.386;2024-01-30T06:52:37;12.45;;;4.32;;
70806;SDS011;58882;52.170;5.386;2024-01-30T06:55:04;9.02;;;4.20;;
70806;SDS011;58882;52.170;5.386;2024-01-30T06:57:31;7.63;;;3.78;;
70806;SDS011;58882;52.170;5.386;2024-01-30T06:59:58;9.50;;;4.40;;
70806;SDS011;58882;52.170;5.386;2024-01-30T07:02:24;8.50;;;4.00;;
70806;SDS011;58882;52.170;5.386;2024-01-30T07:04:51;9.50;;;4.18;;
70806;SDS011;58882;52.170;5.386;2024-01-30T07:07:18;10.05;;;3.88;;
70806;SDS011;58882;52.170;5.386;2024-01-30T07:09:45;8.65;;;4.07;;
70806;SDS011;58882;52.170;5.386;2024-01-30T07:12:14;11.02;;;4.25;;
70806;SDS011;58882;52.170;5.386;2024-01-30T07:14:40;10.05;;;4.38;;
70806;SDS011;58882;52.170;5.386;2024-01-30T07:17:07;10.27;;;4.32;;
70806;SDS011;58882;52.170;5.386;2024-01-30T07:19:34;11.43;;;4.18;;
70806;SDS011;58882;52.170;5.386;2024-01-30T07:22:01;9.65;;;4.22;;
70806;SDS011;58882;52.170;5.386;2024-01-30T07:24:28;9.90;;;4.60;;
70806;SDS011;58882;52.170;5.386;2024-01-30T07:26:55;8.45;;;4.20;;
70806;SDS011;58882;52.170;5.386;2024-01-30T07:29:21;8.82;;;4.20;;
70806;SDS011;58882;52.170;5.386;2024-01-30T07:31:48;8.93;;;4.15;;
70806;SDS011;58882;52.170;5.386;2024-01-30T07:34:15;8.55;;;4.38;;
70806;SDS011;58882;52.170;5.386;2024-01-30T07:36:42;8.15;;;3.90;;
70806;SDS011;58882;52.170;5.386;2024-01-30T07:39:09;10.68;;;3.92;;
70806;SDS011;58882;52.170;5.386;2024-01-30T07:41:36;9.38;;;4.30;;
70806;SDS011;58882;52.170;5.386;2024-01-30T07:44:03;10.38;;;3.80;;
70806;SDS011;58882;52.170;5.386;2024-01-30T07:46:30;8.65;;;3.75;;
70806;SDS011;58882;52.170;5.386;2024-01-30T07:48:57;12.77;;;4.50;;
70806;SDS011;58882;52.170;5.386;2024-01-30T07:51:24;11.07;;;3.88;;
70806;SDS011;58882;52.170;5.386;2024-01-30T07:53:51;12.40;;;4.05;;
70806;SDS011;58882;52.170;5.386;2024-01-30T07:56:18;8.05;;;3.63;;
70806;SDS011;58882;52.170;5.386;2024-01-30T07:58:45;8.02;;;4.20;;
70806;SDS011;58882;52.170;5.386;2024-01-30T08:01:12;10.18;;;4.00;;
70806;SDS011;58882;52.170;5.386;2024-01-30T08:06:08;10.90;;;3.92;;
70806;SDS011;58882;52.170;5.386;2024-01-30T08:08:35;9.18;;;4.00;;
70806;SDS011;58882;52.170;5.386;2024-01-30T08:11:03;12.27;;;3.75;;
70806;SDS011;58882;52.170;5.386;2024-01-30T08:13:30;9.35;;;3.67;;
70806;SDS011;58882;52.170;5.386;2024-01-30T08:15:57;8.43;;;3.90;;
70806;SDS011;58882;52.170;5.386;2024-01-30T08:18:24;8.65;;;3.90;;
70806;SDS011;58882;52.170;5.386;2024-01-30T08:20:51;8.65;;;3.83;;
70806;SDS011;58882;52.170;5.386;2024-01-30T08:23:18;11.10;;;4.07;;
70806;SDS011;58882;52.170;5.386;2024-01-30T08:25:45;9.18;;;3.67;;
70806;SDS011;58882;52.170;5.386;2024-01-30T08:28:12;7.70;;;3.78;;
70806;SDS011;58882;52.170;5.386;2024-01-30T08:30:39;9.10;;;3.85;;
70806;SDS011;58882;52.170;5.386;2024-01-30T08:33:06;9.45;;;3.63;;
70806;SDS011;58882;52.170;5.386;2024-01-30T08:35:33;11.00;;;4.05;;
70806;SDS011;58882;52.170;5.386;2024-01-30T08:38:00;9.52;;;4.00;;
70806;SDS011;58882;52.170;5.386;2024-01-30T08:40:27;9.32;;;4.13;;
70806;SDS011;58882;52.170;5.386;2024-01-30T08:42:55;8.30;;;3.83;;
70806;SDS011;58882;52.170;5.386;2024-01-30T08:45:22;9.10;;;3.80;;
70806;SDS011;58882;52.170;5.386;2024-01-30T08:47:49;7.68;;;3.83;;
70806;SDS011;58882;52.170;5.386;2024-01-30T08:50:16;8.55;;;3.80;;
70806;SDS011;58882;52.170;5.386;2024-01-30T08:52:43;9.77;;;3.90;;
70806;SDS011;58882;52.170;5.386;2024-01-30T08:55:12;9.68;;;3.90;;
70806;SDS011;58882;52.170;5.386;2024-01-30T08:57:39;8.25;;;3.80;;
70806;SDS011;58882;52.170;5.386;2024-01-30T09:00:06;9.65;;;3.55;;
70806;SDS011;58882;52.170;5.386;2024-01-30T09:02:35;7.68;;;3.60;;
70806;SDS011;58882;52.170;5.386;2024-01-30T09:05:03;11.60;;;4.05;;
70806;SDS011;58882;52.170;5.386;2024-01-30T09:07:30;8.25;;;3.60;;
70806;SDS011;58882;52.170;5.386;2024-01-30T09:09:57;8.98;;;3.70;;
70806;SDS011;58882;52.170;5.386;2024-01-30T09:12:24;9.15;;;3.85;;
70806;SDS011;58882;52.170;5.386;2024-01-30T09:14:51;7.82;;;3.63;;
70806;SDS011;58882;52.170;5.386;2024-01-30T09:17:17;8.93;;;4.07;;
70806;SDS011;58882;52.170;5.386;2024-01-30T09:19:45;9.18;;;4.15;;
70806;SDS011;58882;52.170;5.386;2024-01-30T09:22:12;8.32;;;3.67;;
70806;SDS011;58882;52.170;5.386;2024-01-30T09:24:40;9.25;;;3.40;;
70806;SDS011;58882;52.170;5.386;2024-01-30T09:27:07;14.73;;;4.03;;
70806;SDS011;58882;52.170;5.386;2024-01-30T09:29:34;12.38;;;3.80;;
70806;SDS011;58882;52.170;5.386;2024-01-30T09:32:03;12.40;;;3.95;;
70806;SDS011;58882;52.170;5.386;2024-01-30T09:34:31;9.75;;;3.63;;
70806;SDS011;58882;52.170;5.386;2024-01-30T09:36:58;12.70;;;3.92;;
70806;SDS011;58882;52.170;5.386;2024-01-30T09:39:26;8.80;;;4.07;;
70806;SDS011;58882;52.170;5.386;2024-01-30T09:42:05;9.05;;;3.90;;
70806;SDS011;58882;52.170;5.386;2024-01-30T09:44:44;10.15;;;4.18;;
70806;SDS011;58882;52.170;5.386;2024-01-30T09:47:13;10.23;;;3.90;;
70806;SDS011;58882;52.170;5.386;2024-01-30T09:49:42;9.60;;;3.58;;
70806;SDS011;58882;52.170;5.386;2024-01-30T09:52:10;7.82;;;4.15;;
70806;SDS011;58882;52.170;5.386;2024-01-30T09:54:38;8.98;;;4.03;;
70806;SDS011;58882;52.170;5.386;2024-01-30T09:57:06;8.05;;;3.80;;
70806;SDS011;58882;52.170;5.386;2024-01-30T09:59:33;9.13;;;3.97;;
70806;SDS011;58882;52.170;5.386;2024-01-30T10:02:00;8.13;;;3.95;;
70806;SDS011;58882;52.170;5.386;2024-01-30T10:04:27;9.05;;;3.60;;
70806;SDS011;58882;52.170;5.386;2024-01-30T10:06:54;10.57;;;4.22;;
70806;SDS011;58882;52.170;5.386;2024-01-30T10:09:21;10.13;;;4.00;;
70806;SDS011;58882;52.170;5.386;2024-01-30T10:11:48;14.00;;;4.38;;
70806;SDS011;58882;52.170;5.386;2024-01-30T10:14:17;8.57;;;3.55;;
70806;SDS011;58882;52.170;5.386;2024-01-30T10:16:45;12.07;;;4.13;;
70806;SDS011;58882;52.170;5.386;2024-01-30T10:19:13;8.10;;;4.25;;
70806;SDS011;58882;52.170;5.386;2024-01-30T10:21:40;8.65;;;3.80;;
70806;SDS011;58882;52.170;5.386;2024-01-30T10:24:07;9.57;;;3.63;;
70806;SDS011;58882;52.170;5.386;2024-01-30T10:26:33;8.00;;;3.90;;
70806;SDS011;58882;52.170;5.386;2024-01-30T10:29:00;7.25;;;3.60;;
70806;SDS011;58882;52.170;5.386;2024-01-30T10:31:28;10.48;;;3.92;;
70806;SDS011;58882;52.170;5.386;2024-01-30T10:33:55;8.95;;;3.70;;
70806;SDS011;58882;52.170;5.386;2024-01-30T10:36:39;8.65;;;3.90;;
70806;SDS011;58882;52.170;5.386;2024-01-30T10:39:09;9.57;;;3.97;;
70806;SDS011;58882;52.170;5.386;2024-01-30T10:41:47;11.38;;;4.35;;
70806;SDS011;58882;52.170;5.386;2024-01-30T10:44:16;7.75;;;3.72;;
70806;SDS011;58882;52.170;5.386;2024-01-30T10:46:47;8.65;;;4.03;;
70806;SDS011;58882;52.170;5.386;2024-01-30T10:49:21;11.73;;;3.92;;
70806;SDS011;58882;52.170;5.386;2024-01-30T10:51:50;9.38;;;4.05;;
70806;SDS011;58882;52.170;5.386;2024-01-30T10:54:18;7.55;;;3.63;;
70806;SDS011;58882;52.170;5.386;2024-01-30T10:56:47;11.05;;;3.65;;
70806;SDS011;58882;52.170;5.386;2024-01-30T10:59:15;9.95;;;4.20;;
70806;SDS011;58882;52.170;5.386;2024-01-30T11:01:42;8.95;;;3.92;;
70806;SDS011;58882;52.170;5.386;2024-01-30T11:04:09;8.85;;;3.80;;
70806;SDS011;58882;52.170;5.386;2024-01-30T11:06:43;9.30;;;3.67;;
70806;SDS011;58882;52.170;5.386;2024-01-30T11:09:10;9.90;;;3.92;;
70806;SDS011;58882;52.170;5.386;2024-01-30T11:11:51;9.40;;;3.90;;
70806;SDS011;58882;52.170;5.386;2024-01-30T11:14:26;8.85;;;3.85;;
70806;SDS011;58882;52.170;5.386;2024-01-30T11:16:58;9.07;;;3.67;;
70806;SDS011;58882;52.170;5.386;2024-01-30T11:19:26;8.82;;;3.28;;
70806;SDS011;58882;52.170;5.386;2024-01-30T11:21:57;6.05;;;2.97;;
70806;SDS011;58882;52.170;5.386;2024-01-30T11:24:24;9.18;;;3.53;;
70806;SDS011;58882;52.170;5.386;2024-01-30T11:26:56;9.68;;;3.22;;
70806;SDS011;58882;52.170;5.386;2024-01-30T11:29:27;8.73;;;3.60;;
70806;SDS011;58882;52.170;5.386;2024-01-30T11:31:55;9.07;;;3.40;;
70806;SDS011;58882;52.170;5.386;2024-01-30T11:34:24;8.25;;;3.17;;
70806;SDS011;58882;52.170;5.386;2024-01-30T11:36:52;6.57;;;3.03;;
70806;SDS011;58882;52.170;5.386;2024-01-30T11:41:53;7.57;;;2.60;;
70806;SDS011;58882;52.170;5.386;2024-01-30T11:44:20;5.57;;;2.50;;
70806;SDS011;58882;52.170;5.386;2024-01-30T11:46:48;7.80;;;2.60;;
70806;SDS011;58882;52.170;5.386;2024-01-30T11:49:16;7.75;;;2.38;;
70806;SDS011;58882;52.170;5.386;2024-01-30T11:51:47;6.30;;;2.45;;
70806;SDS011;58882;52.170;5.386;2024-01-30T11:54:17;7.60;;;2.50;;
70806;SDS011;58882;52.170;5.386;2024-01-30T11:56:44;7.53;;;2.47;;
70806;SDS011;58882;52.170;5.386;2024-01-30T11:59:11;5.60;;;2.08;;
70806;SDS011;58882;52.170;5.386;2024-01-30T12:01:38;6.32;;;1.95;;
70806;SDS011;58882;52.170;5.386;2024-01-30T12:04:07;7.97;;;2.20;;
70806;SDS011;58882;52.170;5.386;2024-01-30T12:06:37;5.90;;;2.03;;
70806;SDS011;58882;52.170;5.386;2024-01-30T12:09:04;10.93;;;2.15;;
70806;SDS011;58882;52.170;5.386;2024-01-30T12:11:32;5.85;;;2.17;;
70806;SDS011;58882;52.170;5.386;2024-01-30T12:13:58;4.22;;;1.65;;
70806;SDS011;58882;52.170;5.386;2024-01-30T12:16:26;7.25;;;1.88;;
70806;SDS011;58882;52.170;5.386;2024-01-30T12:18:59;5.60;;;2.03;;
70806;SDS011;58882;52.170;5.386;2024-01-30T12:21:28;5.75;;;1.83;;
70806;SDS011;58882;52.170;5.386;2024-01-30T12:23:56;5.63;;;1.85;;
70806;SDS011;58882;52.170;5.386;2024-01-30T12:26:24;6.10;;;1.90;;
70806;SDS011;58882;52.170;5.386;2024-01-30T12:28:54;7.28;;;2.05;;
70806;SDS011;58882;52.170;5.386;2024-01-30T12:31:28;6.75;;;1.73;;
70806;SDS011;58882;52.170;5.386;2024-01-30T12:33:55;9.63;;;2.10;;
70806;SDS011;58882;52.170;5.386;2024-01-30T12:36:24;7.05;;;2.08;;
70806;SDS011;58882;52.170;5.386;2024-01-30T12:38:52;10.77;;;2.00;;
70806;SDS011;58882;52.170;5.386;2024-01-30T12:41:19;6.20;;;1.75;;
70806;SDS011;58882;52.170;5.386;2024-01-30T12:43:46;4.68;;;1.80;;
70806;SDS011;58882;52.170;5.386;2024-01-30T12:46:16;6.45;;;1.70;;
70806;SDS011;58882;52.170;5.386;2024-01-30T12:48:44;5.53;;;1.83;;
70806;SDS011;58882;52.170;5.386;2024-01-30T12:51:11;8.10;;;1.80;;
70806;SDS011;58882;52.170;5.386;2024-01-30T12:53:38;8.60;;;1.90;;
70806;SDS011;58882;52.170;5.386;2024-01-30T12:56:06;6.35;;;1.90;;
70806;SDS011;58882;52.170;5.386;2024-01-30T12:58:33;5.80;;;1.77;;
70806;SDS011;58882;52.170;5.386;2024-01-30T13:01:00;4.53;;;1.77;;
70806;SDS011;58882;52.170;5.386;2024-01-30T13:03:27;6.88;;;2.00;;
70806;SDS011;58882;52.170;5.386;2024-01-30T13:05:54;15.90;;;1.90;;
70806;SDS011;58882;52.170;5.386;2024-01-30T13:08:21;7.55;;;1.83;;
70806;SDS011;58882;52.170;5.386;2024-01-30T13:10:48;9.55;;;2.10;;
70806;SDS011;58882;52.170;5.386;2024-01-30T13:13:16;6.80;;;1.73;;
70806;SDS011;58882;52.170;5.386;2024-01-30T13:15:46;7.85;;;1.70;;
70806;SDS011;58882;52.170;5.386;2024-01-30T13:18:14;4.65;;;1.60;;
70806;SDS011;58882;52.170;5.386;2024-01-30T13:20:41;4.63;;;1.65;;
70806;SDS011;58882;52.170;5.386;2024-01-30T13:23:08;5.13;;;1.70;;
70806;SDS011;58882;52.170;5.386;2024-01-30T13:25:35;6.50;;;1.75;;
70806;SDS011;58882;52.170;5.386;2024-01-30T13:28:02;6.25;;;1.80;;
70806;SDS011;58882;52.170;5.386;2024-01-30T13:30:30;3.75;;;1.42;;
70806;SDS011;58882;52.170;5.386;2024-01-30T13:32:57;6.57;;;1.40;;
70806;SDS011;58882;52.170;5.386;2024-01-30T13:35:25;5.72;;;1.65;;
70806;SDS011;58882;52.170;5.386;2024-01-30T13:37:52;4.68;;;1.70;;
70806;SDS011;58882;52.170;5.386;2024-01-30T13:40:19;7.05;;;1.70;;
70806;SDS011;58882;52.170;5.386;2024-01-30T13:42:46;7.07;;;1.33;;
70806;SDS011;58882;52.170;5.386;2024-01-30T13:45:14;5.50;;;1.48;;
70806;SDS011;58882;52.170;5.386;2024-01-30T13:47:41;7.32;;;1.60;;
70806;SDS011;58882;52.170;5.386;2024-01-30T13:50:08;5.50;;;1.38;;
70806;SDS011;58882;52.170;5.386;2024-01-30T13:52:37;13.13;;;1.80;;
70806;SDS011;58882;52.170;5.386;2024-01-30T13:55:10;7.40;;;1.42;;
70806;SDS011;58882;52.170;5.386;2024-01-30T13:57:37;9.82;;;2.03;;
70806;SDS011;58882;52.170;5.386;2024-01-30T14:00:05;5.80;;;1.70;;
70806;SDS011;58882;52.170;5.386;2024-01-30T14:02:38;8.70;;;1.38;;
70806;SDS011;58882;52.170;5.386;2024-01-30T14:05:05;6.22;;;1.58;;
70806;SDS011;58882;52.170;5.386;2024-01-30T14:07:32;6.63;;;1.35;;
70806;SDS011;58882;52.170;5.386;2024-01-30T14:10:00;7.35;;;1.55;;
70806;SDS011;58882;52.170;5.386;2024-01-30T14:12:26;4.32;;;1.48;;
70806;SDS011;58882;52.170;5.386;2024-01-30T14:14:53;4.05;;;1.40;;
70806;SDS011;58882;52.170;5.386;2024-01-30T14:17:20;5.22;;;1.40;;
70806;SDS011;58882;52.170;5.386;2024-01-30T14:19:47;3.92;;;1.40;;
70806;SDS011;58882;52.170;5.386;2024-01-30T14:22:14;7.55;;;1.40;;
70806;SDS011;58882;52.170;5.386;2024-01-30T14:24:41;4.07;;;1.23;;
70806;SDS011;58882;52.170;5.386;2024-01-30T14:27:08;9.18;;;1.67;;
70806;SDS011;58882;52.170;5.386;2024-01-30T14:29:36;6.47;;;1.40;;
70806;SDS011;58882;52.170;5.386;2024-01-30T14:32:03;6.07;;;1.38;;
70806;SDS011;58882;52.170;5.386;2024-01-30T14:34:30;4.30;;;1.23;;
70806;SDS011;58882;52.170;5.386;2024-01-30T14:36:58;5.20;;;1.10;;
70806;SDS011;58882;52.170;5.386;2024-01-30T14:39:25;6.03;;;1.50;;
70806;SDS011;58882;52.170;5.386;2024-01-30T14:41:52;5.85;;;1.35;;
70806;SDS011;58882;52.170;5.386;2024-01-30T14:44:19;6.43;;;1.15;;
70806;SDS011;58882;52.170;5.386;2024-01-30T14:46:45;7.75;;;1.20;;
70806;SDS011;58882;52.170;5.386;2024-01-30T14:49:12;4.70;;;1.20;;